Time,TemperatureF,DewpointF,PressureIn,WindDirection,WindDirectionDegrees,WindSpeedMPH,WindSpeedGustMPH,Humidity,HourlyPrecipIn,Conditions,Clouds,dailyrainin,SolarRadiationWatts/m^2,SoftwareType,DateUTC
2013-07-09 00:01:00,67.9,64.5,30.08,NE,46,0.0,0.0,89,0.00,,---,0.00,0.00,VWS V14.01,2013-07-09 04:01:00,
2013-07-09 00:02:00,67.8,64.1,30.08,NE,46,0.0,0.0,88,0.00,,---,0.00,0.00,VWS V14.01,2013-07-09 04:02:00,
2013-07-09 00:03:00,67.8,64.1,30.08,NE,46,0.0,0.0,88,0.00,,---,0.00,0.00,VWS V14.01,2013-07-09 04:03:00,
2013-07-09 00:09:00,67.7,64.0,30.08,NE,46,0.0,0.0,88,0.00,,---,0.00,0.00,VWS V14.01,2013-07-09 04:09:00,
2013-07-09 00:14:00,67.7,64.0,30.08,NE,46,0.0,0.0,88,0.00,,---,0.00,0.00,VWS V14.01,2013-07-09 04:14:00,
2013-07-09 00:19:00,67.7,64.0,30.08,NE,46,0.0,0.0,88,0.00,,---,0.00,0.00,VWS V14.01,2013-07-09 04:19:00,
2013-07-09 00:24:00,67.6,64.2,30.08,NE,46,0.0,0.0,89,0.00,,---,0.00,0.00,VWS V14.01,2013-07-09 04:24:00,
2013-07-09 00:29:00,67.7,64.0,30.08,NE,46,0.0,0.0,88,0.00,,---,0.00,0.00,VWS V14.01,2013-07-09 04:29:00,
2013-07-09 00:34:00,67.8,64.8,30.08,NE,46,0.0,0.0,90,0.00,,---,0.00,0.00,VWS V14.01,2013-07-09 04:34:00,
2013-07-09 00:39:00,67.8,64.4,30.08,NE,46,0.0,0.0,89,0.00,,---,0.00,0.00,VWS V14.01,2013-07-09 04:39:00,
2013-07-09 00:44:00,67.8,64.4,30.08,NE,46,0.0,0.0,89,0.00,,---,0.00,0.00,VWS V14.01,2013-07-09 04:44:00,
2013-07-09 00:49:00,67.7,64.3,30.08,NE,46,0.0,0.0,89,0.00,,---,0.00,0.00,VWS V14.01,2013-07-09 04:49:00,
2013-07-09 00:54:00,67.6,64.6,30.08,NE,46,0.0,0.0,90,0.00,,---,0.00,0.00,VWS V14.01,2013-07-09 04:54:00,
2013-07-09 00:59:00,67.6,64.9,30.07,NE,46,0.0,0.0,91,0.00,,---,0.00,0.00,VWS V14.01,2013-07-09 04:59:00,
2013-07-09 01:04:00,67.7,65.0,30.07,NE,46,0.0,0.0,91,0.00,,---,0.00,0.00,VWS V14.01,2013-07-09 05:04:00,
2013-07-09 01:09:00,67.7,64.7,30.07,NE,46,0.0,0.0,90,0.00,,---,0.00,0.00,VWS V14.01,2013-07-09 05:09:00,
2013-07-09 01:14:00,68.0,65.0,30.07,NE,46,0.0,0.0,90,0.00,,---,0.00,0.00,VWS V14.01,2013-07-09 05:14:00,
2013-07-09 01:20:00,68.1,65.1,30.07,NE,46,0.0,0.0,90,0.00,,---,0.00,0.00,VWS V14.01,2013-07-09 05:20:00,
2013-07-09 01:25:00,67.9,64.9,30.07,NE,46,0.0,0.0,90,0.00,,---,0.00,0.00,VWS V14.01,2013-07-09 05:25:00,
2013-07-09 01:30:00,67.8,64.8,30.06,NE,46,0.0,0.0,90,0.00,,---,0.00,0.00,VWS V14.01,2013-07-09 05:30:00,
2013-07-09 01:35:00,67.6,64.9,30.06,NE,46,0.0,0.0,91,0.00,,---,0.00,0.00,VWS V14.01,2013-07-09 05:35:00,
2013-07-09 01:40:00,67.4,64.7,30.07,NE,46,0.0,0.0,91,0.00,,---,0.00,0.00,VWS V14.01,2013-07-09 05:40:00,
2013-07-09 01:45:00,67.2,64.5,30.06,NE,46,0.0,0.0,91,0.00,,---,0.00,0.00,VWS V14.01,2013-07-09 05:45:00,
2013-07-09 01:50:00,67.0,64.6,30.06,NE,46,0.0,0.0,92,0.00,,---,0.00,0.00,VWS V14.01,2013-07-09 05:50:00,
2013-07-09 01:55:00,66.8,64.4,30.06,NE,46,0.0,0.0,92,0.00,,---,0.00,0.00,VWS V14.01,2013-07-09 05:55:00,
2013-07-09 02:00:00,66.7,64.3,30.06,NE,46,0.0,0.0,92,0.00,,---,0.00,0.00,VWS V14.01,2013-07-09 06:00:00,
2013-07-09 02:05:00,66.5,64.1,30.06,NE,46,0.0,0.0,92,0.00,,---,0.00,0.00,VWS V14.01,2013-07-09 06:05:00,
2013-07-09 02:11:00,66.3,63.9,30.06,NE,46,0.0,0.0,92,0.00,,---,0.00,0.00,VWS V14.01,2013-07-09 06:11:00,
2013-07-09 02:16:00,66.2,64.1,30.06,NE,46,0.0,0.0,93,0.00,,---,0.00,0.00,VWS V14.01,2013-07-09 06:16:00,
2013-07-09 02:21:00,66.1,64.0,30.06,NE,46,0.0,0.0,93,0.00,,---,0.00,0.00,VWS V14.01,2013-07-09 06:21:00,
2013-07-09 02:26:00,66.2,64.4,30.06,NE,46,0.0,0.0,94,0.00,,---,0.00,0.00,VWS V14.01,2013-07-09 06:26:00,
2013-07-09 02:31:00,66.3,64.5,30.06,NE,46,0.0,0.0,94,0.00,,---,0.00,0.00,VWS V14.01,2013-07-09 06:31:00,
2013-07-09 02:36:00,66.4,64.6,30.06,NE,46,0.0,0.0,94,0.00,,---,0.00,0.00,VWS V14.01,2013-07-09 06:36:00,
2013-07-09 02:41:00,66.5,64.7,30.06,NE,46,0.0,0.0,94,0.00,,---,0.00,0.00,VWS V14.01,2013-07-09 06:41:00,
2013-07-09 02:46:00,66.6,64.8,30.06,NE,46,0.0,0.0,94,0.00,,---,0.00,0.00,VWS V14.01,2013-07-09 06:46:00,
2013-07-09 02:51:00,66.8,65.3,30.06,NE,46,0.0,0.0,95,0.00,,---,0.00,0.00,VWS V14.01,2013-07-09 06:51:00,
2013-07-09 02:56:00,66.9,65.4,30.06,NE,46,0.0,0.0,95,0.00,,---,0.00,0.00,VWS V14.01,2013-07-09 06:56:00,
2013-07-09 03:02:00,66.9,65.4,30.05,NE,46,0.0,0.0,95,0.00,,---,0.00,0.00,VWS V14.01,2013-07-09 07:02:00,
2013-07-09 03:07:00,66.9,65.4,30.05,NE,46,0.0,0.0,95,0.00,,---,0.00,0.00,VWS V14.01,2013-07-09 07:07:00,
2013-07-09 03:12:00,66.9,65.4,30.06,NE,46,0.0,0.0,95,0.00,,---,0.00,0.00,VWS V14.01,2013-07-09 07:12:00,
2013-07-09 03:17:00,66.9,65.4,30.05,NE,46,0.0,0.0,95,0.00,,---,0.00,0.00,VWS V14.01,2013-07-09 07:17:00,
2013-07-09 03:22:00,66.9,65.4,30.05,NE,46,0.0,0.0,95,0.00,,---,0.00,0.00,VWS V14.01,2013-07-09 07:22:00,
2013-07-09 03:27:00,67.0,65.5,30.04,NE,46,0.0,0.0,95,0.00,,---,0.00,0.00,VWS V14.01,2013-07-09 07:27:00,
2013-07-09 03:32:00,67.0,65.5,30.05,NE,46,0.0,0.0,95,0.00,,---,0.00,0.00,VWS V14.01,2013-07-09 07:32:00,
2013-07-09 03:37:00,67.0,65.5,30.05,NE,46,0.0,0.0,95,0.00,,---,0.00,0.00,VWS V14.01,2013-07-09 07:37:00,
2013-07-09 03:42:00,66.9,65.4,30.05,NE,46,0.0,0.0,95,0.00,,---,0.00,0.00,VWS V14.01,2013-07-09 07:42:00,
2013-07-09 03:47:00,66.9,65.4,30.05,NE,46,0.0,0.0,95,0.00,,---,0.00,0.00,VWS V14.01,2013-07-09 07:47:00,
2013-07-09 03:53:00,66.8,65.3,30.06,NE,46,0.0,0.0,95,0.00,,---,0.00,0.00,VWS V14.01,2013-07-09 07:53:00,
2013-07-09 03:58:00,66.8,65.3,30.06,NE,46,0.0,0.0,95,0.00,,---,0.00,0.00,VWS V14.01,2013-07-09 07:58:00,
2013-07-09 04:03:00,66.7,65.2,30.06,NE,46,0.0,0.0,95,0.00,,---,0.00,0.00,VWS V14.01,2013-07-09 08:03:00,
2013-07-09 04:08:00,66.5,65.0,30.06,NE,46,0.0,0.0,95,0.00,,---,0.00,0.00,VWS V14.01,2013-07-09 08:08:00,
2013-07-09 04:13:00,66.4,64.9,30.06,NE,46,0.0,0.0,95,0.00,,---,0.00,0.00,VWS V14.01,2013-07-09 08:13:00,
2013-07-09 04:18:00,66.2,64.7,30.06,NE,46,0.0,0.0,95,0.00,,---,0.00,0.00,VWS V14.01,2013-07-09 08:18:00,
2013-07-09 04:23:00,66.1,64.6,30.06,NE,46,0.0,0.0,95,0.00,,---,0.00,0.00,VWS V14.01,2013-07-09 08:23:00,
2013-07-09 04:28:00,66.2,64.7,30.06,NE,46,0.0,0.0,95,0.00,,---,0.00,0.00,VWS V14.01,2013-07-09 08:28:00,
2013-07-09 04:33:00,66.3,65.1,30.06,NE,46,0.0,0.0,96,0.00,,---,0.00,0.00,VWS V14.01,2013-07-09 08:33:00,
2013-07-09 04:38:00,66.3,65.1,30.06,NE,46,0.0,0.0,96,0.00,,---,0.00,0.00,VWS V14.01,2013-07-09 08:38:00,
2013-07-09 04:43:00,66.3,65.1,30.06,NE,46,0.0,0.0,96,0.00,,---,0.00,0.00,VWS V14.01,2013-07-09 08:43:00,
2013-07-09 04:49:00,66.4,65.2,30.07,NE,46,0.0,0.0,96,0.00,,---,0.00,0.00,VWS V14.01,2013-07-09 08:49:00,
2013-07-09 04:54:00,66.4,65.2,30.07,NE,46,0.0,0.0,96,0.00,,---,0.00,0.00,VWS V14.01,2013-07-09 08:54:00,
2013-07-09 04:59:00,66.3,65.1,30.07,NE,46,0.0,0.0,96,0.00,,---,0.00,0.00,VWS V14.01,2013-07-09 08:59:00,
2013-07-09 05:04:00,66.3,65.1,30.07,NE,46,0.0,0.0,96,0.00,,---,0.00,0.00,VWS V14.01,2013-07-09 09:04:00,
2013-07-09 05:09:00,66.3,65.1,30.07,NE,46,0.0,0.0,96,0.00,,---,0.00,0.00,VWS V14.01,2013-07-09 09:09:00,
2013-07-09 05:14:00,66.3,65.1,30.07,NE,46,0.0,0.0,96,0.00,,---,0.00,0.00,VWS V14.01,2013-07-09 09:14:00,
2013-07-09 05:19:00,66.0,64.5,30.07,NE,46,0.0,0.0,95,0.00,,---,0.00,0.00,VWS V14.01,2013-07-09 09:19:00,
2013-07-09 05:24:00,65.7,64.5,30.06,NE,46,0.0,0.0,96,0.00,,---,0.00,0.00,VWS V14.01,2013-07-09 09:24:00,
2013-07-09 05:29:00,65.6,64.4,30.06,NE,46,0.0,0.0,96,0.00,,---,0.00,0.00,VWS V14.01,2013-07-09 09:29:00,
2013-07-09 05:34:00,65.5,64.3,30.07,NE,46,0.0,0.0,96,0.00,,---,0.00,0.00,VWS V14.01,2013-07-09 09:34:00,
2013-07-09 05:39:00,65.3,64.1,30.07,NE,46,0.0,0.0,96,0.00,,---,0.00,0.00,VWS V14.01,2013-07-09 09:39:00,
2013-07-09 05:44:00,65.3,64.1,30.07,NE,46,0.0,0.0,96,0.00,,---,0.00,0.00,VWS V14.01,2013-07-09 09:44:00,
2013-07-09 05:49:00,65.2,64.0,30.07,NE,46,0.0,0.0,96,0.00,,---,0.00,0.00,VWS V14.01,2013-07-09 09:49:00,
2013-07-09 05:55:00,65.2,64.0,30.07,NE,46,0.0,0.0,96,0.00,,---,0.00,0.00,VWS V14.01,2013-07-09 09:55:00,
2013-07-09 06:00:00,65.2,64.3,30.07,NE,46,0.0,0.0,97,0.00,,---,0.00,0.00,VWS V14.01,2013-07-09 10:00:00,
2013-07-09 06:05:00,65.1,64.2,30.07,NE,46,0.0,0.0,97,0.00,,---,0.00,0.00,VWS V14.01,2013-07-09 10:05:00,
2013-07-09 06:10:00,64.9,63.7,30.07,NE,46,0.0,0.0,96,0.00,,---,0.00,0.00,VWS V14.01,2013-07-09 10:10:00,
2013-07-09 06:15:00,64.8,63.6,30.07,NE,46,0.0,0.0,96,0.00,,---,0.00,0.00,VWS V14.01,2013-07-09 10:15:00,
2013-07-09 06:21:00,64.7,63.5,30.07,NE,46,0.0,0.0,96,0.00,,---,0.00,0.00,VWS V14.01,2013-07-09 10:21:00,
2013-07-09 06:26:00,64.7,63.8,30.07,NE,46,0.0,0.0,97,0.00,,---,0.00,0.00,VWS V14.01,2013-07-09 10:26:00,
2013-07-09 06:31:00,64.7,63.8,30.07,NE,46,0.0,0.0,97,0.00,,---,0.00,5.00,VWS V14.01,2013-07-09 10:31:00,
2013-07-09 06:36:00,64.6,63.7,30.07,NE,46,0.0,0.0,97,0.00,,---,0.00,9.00,VWS V14.01,2013-07-09 10:36:00,
2013-07-09 06:41:00,64.5,63.6,30.07,NE,46,0.0,0.0,97,0.00,,---,0.00,9.00,VWS V14.01,2013-07-09 10:41:00,
2013-07-09 06:46:00,64.5,63.6,30.07,NE,46,0.0,0.0,97,0.00,,---,0.00,11.00,VWS V14.01,2013-07-09 10:46:00,
2013-07-09 06:51:00,64.5,63.6,30.07,NE,46,0.0,0.0,97,0.00,,---,0.00,12.00,VWS V14.01,2013-07-09 10:51:00,
2013-07-09 06:56:00,64.8,63.9,30.07,NE,46,0.0,0.0,97,0.00,,---,0.00,12.00,VWS V14.01,2013-07-09 10:56:00,
2013-07-09 07:01:00,65.1,64.2,30.07,NE,46,0.0,0.0,97,0.00,,---,0.00,14.00,VWS V14.01,2013-07-09 11:01:00,
2013-07-09 07:06:00,65.3,64.7,30.07,NE,46,0.0,0.0,98,0.00,,---,0.00,16.00,VWS V14.01,2013-07-09 11:06:00,
2013-07-09 07:12:00,65.3,64.7,30.07,NE,46,0.0,0.0,98,0.00,,---,0.00,19.00,VWS V14.01,2013-07-09 11:12:00,
2013-07-09 07:17:00,65.2,64.6,30.07,NE,46,0.0,0.0,98,0.00,,---,0.00,23.00,VWS V14.01,2013-07-09 11:17:00,
2013-07-09 07:22:00,65.2,64.6,30.07,NE,46,0.0,0.0,98,0.00,,---,0.00,25.00,VWS V14.01,2013-07-09 11:22:00,
2013-07-09 07:27:00,65.3,64.7,30.07,NE,46,0.0,0.0,98,0.00,,---,0.00,28.00,VWS V14.01,2013-07-09 11:27:00,
2013-07-09 07:32:00,65.4,64.8,30.08,NE,46,0.0,0.0,98,0.00,,---,0.00,30.00,VWS V14.01,2013-07-09 11:32:00,
2013-07-09 07:37:00,65.6,65.0,30.08,NE,46,0.0,0.0,98,0.00,,---,0.00,30.00,VWS V14.01,2013-07-09 11:37:00,
2013-07-09 07:42:00,65.9,65.3,30.08,NE,46,0.0,0.0,98,0.00,,---,0.00,33.00,VWS V14.01,2013-07-09 11:42:00,
2013-07-09 07:47:00,66.3,65.7,30.08,NE,46,0.0,0.0,98,0.00,,---,0.00,35.00,VWS V14.01,2013-07-09 11:47:00,
2013-07-09 07:52:00,66.5,65.9,30.08,NE,46,0.0,0.0,98,0.00,,---,0.00,39.00,VWS V14.01,2013-07-09 11:52:00,
2013-07-09 07:58:00,66.8,66.2,30.08,NE,46,0.0,0.0,98,0.00,,---,0.00,42.00,VWS V14.01,2013-07-09 11:58:00,
2013-07-09 08:03:00,67.1,66.5,30.08,NE,46,0.0,0.0,98,0.00,,---,0.00,46.00,VWS V14.01,2013-07-09 12:03:00,
2013-07-09 08:07:00,67.3,66.7,30.08,NE,46,0.0,0.0,98,0.00,,---,0.00,49.00,VWS V14.01,2013-07-09 12:07:00,
2013-07-09 08:13:00,67.8,67.2,30.08,NE,46,0.0,0.0,98,0.00,,---,0.00,63.00,VWS V14.01,2013-07-09 12:13:00,
2013-07-09 08:18:00,68.1,67.5,30.08,NE,46,0.0,1.0,98,0.00,,---,0.00,67.00,VWS V14.01,2013-07-09 12:18:00,
2013-07-09 08:23:00,68.4,67.8,30.08,NE,46,0.0,0.0,98,0.00,,---,0.00,60.00,VWS V14.01,2013-07-09 12:23:00,
2013-07-09 08:28:00,68.5,67.9,30.08,NE,46,0.0,0.0,98,0.00,,---,0.00,70.00,VWS V14.01,2013-07-09 12:28:00,
2013-07-09 08:33:00,69.0,68.4,30.08,NE,46,0.0,0.0,98,0.00,,---,0.00,88.00,VWS V14.01,2013-07-09 12:33:00,
2013-07-09 08:38:00,69.6,69.0,30.08,NE,44,0.0,0.0,98,0.00,,---,0.00,132.00,VWS V14.01,2013-07-09 12:38:00,
2013-07-09 08:43:00,70.2,69.6,30.08,NE,46,0.0,2.0,98,0.00,,---,0.00,297.00,VWS V14.01,2013-07-09 12:43:00,
2013-07-09 08:48:00,70.6,69.7,30.08,NE,46,0.0,0.0,97,0.00,,---,0.00,269.00,VWS V14.01,2013-07-09 12:48:00,
2013-07-09 08:53:00,70.9,69.7,30.08,NE,46,0.0,0.0,96,0.00,,---,0.00,408.00,VWS V14.01,2013-07-09 12:53:00,
2013-07-09 08:58:00,71.6,70.1,30.08,NE,46,0.0,0.0,95,0.00,,---,0.00,380.00,VWS V14.01,2013-07-09 12:58:00,
2013-07-09 09:04:00,72.4,70.6,30.08,NE,46,0.0,1.0,94,0.00,,---,0.00,396.00,VWS V14.01,2013-07-09 13:04:00,
2013-07-09 09:09:00,73.0,70.5,30.08,NE,46,0.0,0.0,92,0.00,,---,0.00,301.00,VWS V14.01,2013-07-09 13:09:00,
2013-07-09 09:14:00,73.3,69.9,30.08,NE,46,2.0,2.0,89,0.00,,---,0.00,369.00,VWS V14.01,2013-07-09 13:14:00,
2013-07-09 09:19:00,73.5,70.4,30.08,NE,46,0.0,1.0,90,0.00,,---,0.00,520.00,VWS V14.01,2013-07-09 13:19:00,
2013-07-09 09:24:00,73.8,70.4,30.08,NE,46,0.0,2.0,89,0.00,,---,0.00,578.00,VWS V14.01,2013-07-09 13:24:00,
2013-07-09 09:29:00,74.1,70.0,30.08,NE,46,0.0,0.0,87,0.00,,---,0.00,253.00,VWS V14.01,2013-07-09 13:29:00,
2013-07-09 09:34:00,74.4,70.6,30.08,NE,46,1.0,2.0,88,0.00,,---,0.00,227.00,VWS V14.01,2013-07-09 13:34:00,
2013-07-09 09:39:00,74.5,70.7,30.08,NE,46,0.0,0.0,88,0.00,,---,0.00,566.00,VWS V14.01,2013-07-09 13:39:00,
2013-07-09 09:44:00,74.9,71.1,30.08,NE,46,1.0,1.0,88,0.00,,---,0.00,554.00,VWS V14.01,2013-07-09 13:44:00,
2013-07-09 09:49:00,75.4,71.6,30.08,NE,46,2.0,2.0,88,0.00,,---,0.00,559.00,VWS V14.01,2013-07-09 13:49:00,
2013-07-09 09:55:00,75.7,71.2,30.08,NE,46,0.0,3.0,86,0.00,,---,0.00,429.00,VWS V14.01,2013-07-09 13:55:00,
2013-07-09 10:00:00,75.8,71.0,30.07,NE,46,1.0,2.0,85,0.00,,---,0.00,575.00,VWS V14.01,2013-07-09 14:00:00,
2013-07-09 10:05:00,76.0,71.2,30.07,NE,46,0.0,2.0,85,0.00,,---,0.00,589.00,VWS V14.01,2013-07-09 14:05:00,
2013-07-09 10:10:00,76.3,71.8,30.07,NE,46,1.0,2.0,86,0.00,,---,0.00,606.00,VWS V14.01,2013-07-09 14:10:00,
2013-07-09 10:15:00,76.5,72.0,30.07,WSW,252,0.0,3.0,86,0.00,,---,0.00,626.00,VWS V14.01,2013-07-09 14:15:00,
2013-07-09 10:20:00,76.6,71.8,30.08,SW,235,2.0,4.0,85,0.00,,---,0.00,439.00,VWS V14.01,2013-07-09 14:20:00,
2013-07-09 10:25:00,76.8,71.9,30.08,SW,233,0.0,4.0,85,0.00,,---,0.00,664.00,VWS V14.01,2013-07-09 14:25:00,
2013-07-09 10:30:00,77.0,71.4,30.08,WSW,240,0.0,3.0,83,0.00,,---,0.00,663.00,VWS V14.01,2013-07-09 14:30:00,
2013-07-09 10:35:00,77.4,71.8,30.08,West,266,0.0,3.0,83,0.00,,---,0.00,679.00,VWS V14.01,2013-07-09 14:35:00,
2013-07-09 10:41:00,77.8,72.2,30.08,West,266,0.0,2.0,83,0.00,,---,0.00,693.00,VWS V14.01,2013-07-09 14:41:00,
2013-07-09 10:46:00,78.1,71.4,30.08,WNW,301,2.0,4.0,80,0.00,,---,0.00,712.00,VWS V14.01,2013-07-09 14:46:00,
2013-07-09 10:51:00,78.3,72.0,30.08,NNW,338,1.0,3.0,81,0.00,,---,0.00,758.00,VWS V14.01,2013-07-09 14:51:00,
2013-07-09 10:56:00,78.8,71.7,30.08,WNW,294,0.0,3.0,79,0.00,,---,0.00,675.00,VWS V14.01,2013-07-09 14:56:00,
2013-07-09 11:01:00,79.4,71.9,30.08,WNW,295,0.0,3.0,78,0.00,,---,0.00,570.00,VWS V14.01,2013-07-09 15:01:00,
2013-07-09 11:06:00,80.3,73.2,30.08,WNW,295,0.0,3.0,79,0.00,,---,0.00,793.00,VWS V14.01,2013-07-09 15:06:00,
2013-07-09 11:11:00,81.3,74.2,30.08,WNW,293,0.0,1.0,79,0.00,,---,0.00,846.00,VWS V14.01,2013-07-09 15:11:00,
2013-07-09 11:16:00,81.7,73.0,30.08,WNW,293,2.0,2.0,75,0.00,,---,0.00,306.00,VWS V14.01,2013-07-09 15:16:00,
2013-07-09 11:21:00,81.2,71.3,30.08,WNW,288,0.0,2.0,72,0.00,,---,0.00,889.00,VWS V14.01,2013-07-09 15:21:00,
2013-07-09 11:26:00,81.0,72.3,30.08,WNW,288,0.0,2.0,75,0.00,,---,0.00,956.00,VWS V14.01,2013-07-09 15:26:00,
2013-07-09 11:32:00,81.4,73.5,30.08,SW,216,0.0,3.0,77,0.00,,---,0.00,413.00,VWS V14.01,2013-07-09 15:32:00,
2013-07-09 11:37:00,81.1,72.0,30.08,West,267,0.0,4.0,74,0.00,,---,0.00,977.00,VWS V14.01,2013-07-09 15:37:00,
2013-07-09 11:42:00,80.7,72.0,30.08,West,270,0.0,3.0,75,0.00,,---,0.00,241.00,VWS V14.01,2013-07-09 15:42:00,
2013-07-09 11:47:00,80.3,71.3,30.08,West,270,0.0,3.0,74,0.00,,---,0.00,891.00,VWS V14.01,2013-07-09 15:47:00,
2013-07-09 11:52:00,80.5,71.8,30.08,West,270,4.0,4.0,75,0.00,,---,0.00,932.00,VWS V14.01,2013-07-09 15:52:00,
2013-07-09 11:57:00,80.7,71.2,30.07,WSW,254,0.0,5.0,73,0.00,,---,0.00,949.00,VWS V14.01,2013-07-09 15:57:00,
2013-07-09 12:02:00,81.0,71.9,30.08,WNW,302,0.0,4.0,74,0.00,,---,0.00,928.00,VWS V14.01,2013-07-09 16:02:00,
2013-07-09 12:07:00,81.6,72.1,30.07,South,182,0.0,4.0,73,0.00,,---,0.00,179.00,VWS V14.01,2013-07-09 16:07:00,
2013-07-09 12:13:00,81.7,71.8,30.07,SSW,194,1.0,1.0,72,0.00,,---,0.00,995.00,VWS V14.01,2013-07-09 16:13:00,
2013-07-09 12:18:00,81.8,71.9,30.07,West,269,2.0,6.0,72,0.00,,---,0.00,953.00,VWS V14.01,2013-07-09 16:18:00,
2013-07-09 12:23:00,81.9,71.6,30.07,WSW,248,0.0,3.0,71,0.00,,---,0.00,954.00,VWS V14.01,2013-07-09 16:23:00,
2013-07-09 12:28:00,82.1,71.8,30.07,WSW,248,0.0,3.0,71,0.00,,---,0.00,970.00,VWS V14.01,2013-07-09 16:28:00,
2013-07-09 12:33:00,82.2,71.9,30.07,WSW,248,0.0,3.0,71,0.00,,---,0.00,176.00,VWS V14.01,2013-07-09 16:33:00,
2013-07-09 12:38:00,82.3,73.6,30.07,West,276,0.0,3.0,75,0.00,,---,0.00,1041.00,VWS V14.01,2013-07-09 16:38:00,
2013-07-09 12:43:00,82.8,72.4,30.07,WNW,283,0.0,2.0,71,0.00,,---,0.00,1056.00,VWS V14.01,2013-07-09 16:43:00,
2013-07-09 12:48:00,83.0,72.2,30.07,South,182,0.0,4.0,70,0.00,,---,0.00,663.00,VWS V14.01,2013-07-09 16:48:00,
2013-07-09 12:53:00,82.9,72.5,30.07,West,276,0.0,3.0,71,0.00,,---,0.00,418.00,VWS V14.01,2013-07-09 16:53:00,
2013-07-09 12:58:00,82.7,71.9,30.07,SSE,163,0.0,0.0,70,0.00,,---,0.00,271.00,VWS V14.01,2013-07-09 16:58:00,
2013-07-09 13:04:00,82.7,73.6,30.07,SW,223,0.0,4.0,74,0.00,,---,0.00,1092.00,VWS V14.01,2013-07-09 17:04:00,
2013-07-09 13:09:00,82.6,71.4,30.07,WSW,257,0.0,1.0,69,0.00,,---,0.00,207.00,VWS V14.01,2013-07-09 17:09:00,
2013-07-09 13:14:00,82.4,72.9,30.07,WSW,257,0.0,2.0,73,0.00,,---,0.00,1074.00,VWS V14.01,2013-07-09 17:14:00,
2013-07-09 13:19:00,82.7,72.8,30.06,West,261,0.0,1.0,72,0.00,,---,0.00,1107.00,VWS V14.01,2013-07-09 17:19:00,
2013-07-09 13:24:00,83.1,72.7,30.06,WNW,292,2.0,2.0,71,0.00,,---,0.00,1076.00,VWS V14.01,2013-07-09 17:24:00,
2013-07-09 13:29:00,83.0,72.2,30.06,SW,226,0.0,2.0,70,0.00,,---,0.00,1148.00,VWS V14.01,2013-07-09 17:29:00,
2013-07-09 13:34:00,83.3,72.9,30.06,SW,226,0.0,2.0,71,0.00,,---,0.00,772.00,VWS V14.01,2013-07-09 17:34:00,
2013-07-09 13:39:00,83.4,72.2,30.06,SW,226,0.0,1.0,69,0.00,,---,0.00,1160.00,VWS V14.01,2013-07-09 17:39:00,
2013-07-09 13:45:00,83.5,72.3,30.05,SSW,213,0.0,4.0,69,0.00,,---,0.00,1055.00,VWS V14.01,2013-07-09 17:45:00,
2013-07-09 13:50:00,83.6,71.9,30.05,NW,304,0.0,2.0,68,0.00,,---,0.00,176.00,VWS V14.01,2013-07-09 17:50:00,
2013-07-09 13:55:00,83.6,73.2,30.05,WNW,290,0.0,2.0,71,0.00,,---,0.00,237.00,VWS V14.01,2013-07-09 17:55:00,
2013-07-09 14:00:00,83.8,73.0,30.05,WSW,258,0.0,7.0,70,0.00,,---,0.00,1139.00,VWS V14.01,2013-07-09 18:00:00,
2013-07-09 14:05:00,84.2,72.1,30.05,WNW,283,0.0,7.0,67,0.00,,---,0.00,1113.00,VWS V14.01,2013-07-09 18:05:00,
2013-07-09 14:10:00,84.5,72.8,30.05,SW,232,0.0,2.0,68,0.00,,---,0.00,225.00,VWS V14.01,2013-07-09 18:10:00,
2013-07-09 14:15:00,84.3,72.6,30.04,SW,219,0.0,4.0,68,0.00,,---,0.00,204.00,VWS V14.01,2013-07-09 18:15:00,
2013-07-09 14:20:00,84.1,73.7,30.04,SW,219,1.0,1.0,71,0.00,,---,0.00,1099.00,VWS V14.01,2013-07-09 18:20:00,
2013-07-09 14:25:00,84.3,74.3,30.04,SW,229,0.0,6.0,72,0.00,,---,0.00,1034.00,VWS V14.01,2013-07-09 18:25:00,
2013-07-09 14:31:00,84.8,73.5,30.03,West,267,0.0,1.0,69,0.00,,---,0.00,1007.00,VWS V14.01,2013-07-09 18:31:00,
2013-07-09 14:36:00,85.2,73.0,30.03,WSW,243,0.0,4.0,67,0.00,,---,0.00,1020.00,VWS V14.01,2013-07-09 18:36:00,
2013-07-09 14:41:00,85.6,73.4,30.03,WSW,248,0.0,3.0,67,0.00,,---,0.00,1025.00,VWS V14.01,2013-07-09 18:41:00,
2013-07-09 14:46:00,85.7,73.0,30.03,WSW,250,0.0,3.0,66,0.00,,---,0.00,1028.00,VWS V14.01,2013-07-09 18:46:00,
2013-07-09 14:51:00,86.1,75.2,30.03,WSW,250,2.0,3.0,70,0.00,,---,0.00,1060.00,VWS V14.01,2013-07-09 18:51:00,
2013-07-09 14:56:00,86.1,73.4,30.03,West,280,0.0,4.0,66,0.00,,---,0.00,1016.00,VWS V14.01,2013-07-09 18:56:00,
2013-07-09 15:01:00,85.7,73.0,30.03,SW,234,1.0,6.0,66,0.00,,---,0.00,1020.00,VWS V14.01,2013-07-09 19:01:00,
2013-07-09 15:07:00,85.6,74.3,30.02,WSW,239,0.0,6.0,69,0.00,,---,0.00,798.00,VWS V14.01,2013-07-09 19:07:00,
2013-07-09 15:12:00,85.7,73.9,30.02,WSW,239,2.0,4.0,68,0.00,,---,0.00,698.00,VWS V14.01,2013-07-09 19:12:00,
2013-07-09 15:17:00,85.4,74.1,30.02,SW,228,0.0,4.0,69,0.00,,---,0.00,276.00,VWS V14.01,2013-07-09 19:17:00,
2013-07-09 15:22:00,85.4,74.5,30.02,WSW,242,0.0,2.0,70,0.00,,---,0.00,186.00,VWS V14.01,2013-07-09 19:22:00,
2013-07-09 15:27:00,85.2,74.3,30.02,WSW,242,0.0,2.0,70,0.00,,---,0.00,1007.00,VWS V14.01,2013-07-09 19:27:00,
2013-07-09 15:32:00,85.3,72.2,30.01,WNW,302,0.0,7.0,65,0.00,,---,0.00,953.00,VWS V14.01,2013-07-09 19:32:00,
2013-07-09 15:37:00,85.5,71.9,30.01,WNW,302,0.0,7.0,64,0.00,,---,0.00,954.00,VWS V14.01,2013-07-09 19:37:00,
2013-07-09 15:42:00,85.6,72.5,30.01,NNE,27,0.0,3.0,65,0.00,,---,0.00,986.00,VWS V14.01,2013-07-09 19:42:00,
2013-07-09 15:48:00,85.4,74.1,30.01,NNE,27,0.0,3.0,69,0.00,,---,0.00,172.00,VWS V14.01,2013-07-09 19:48:00,
2013-07-09 15:53:00,85.5,72.4,30.01,NNE,28,0.0,1.0,65,0.00,,---,0.00,137.00,VWS V14.01,2013-07-09 19:53:00,
2013-07-09 15:58:00,85.2,74.3,30.00,NNE,28,0.0,1.0,70,0.00,,---,0.00,250.00,VWS V14.01,2013-07-09 19:58:00,
2013-07-09 16:03:00,85.2,72.1,30.00,NNE,28,0.0,1.0,65,0.00,,---,0.00,923.00,VWS V14.01,2013-07-09 20:03:00,
2013-07-09 16:08:00,85.6,74.7,30.00,NE,46,0.0,1.0,70,0.00,,---,0.00,949.00,VWS V14.01,2013-07-09 20:08:00,
2013-07-09 16:13:00,86.3,72.7,30.00,NE,46,0.0,1.0,64,0.00,,---,0.00,925.00,VWS V14.01,2013-07-09 20:13:00,
2013-07-09 16:18:00,86.6,73.0,29.99,NE,46,0.0,2.0,64,0.00,,---,0.00,188.00,VWS V14.01,2013-07-09 20:18:00,
2013-07-09 16:23:00,86.3,72.2,29.99,NE,46,0.0,1.0,63,0.00,,---,0.00,192.00,VWS V14.01,2013-07-09 20:23:00,
2013-07-09 16:29:00,86.5,74.7,29.99,NE,46,0.0,0.0,68,0.00,,---,0.00,902.00,VWS V14.01,2013-07-09 20:29:00,
2013-07-09 16:34:00,87.0,74.7,29.98,NE,46,0.0,2.0,67,0.00,,---,0.00,884.00,VWS V14.01,2013-07-09 20:34:00,
2013-07-09 16:39:00,87.0,71.4,29.98,NE,46,0.0,1.0,60,0.00,,---,0.00,216.00,VWS V14.01,2013-07-09 20:39:00,
2013-07-09 16:44:00,87.0,73.4,29.98,NE,46,0.0,1.0,64,0.00,,---,0.00,817.00,VWS V14.01,2013-07-09 20:44:00,
2013-07-09 16:49:00,87.2,72.6,29.98,NE,46,0.0,1.0,62,0.00,,---,0.00,805.00,VWS V14.01,2013-07-09 20:49:00,
2013-07-09 16:54:00,87.5,72.9,29.98,SW,226,1.0,4.0,62,0.00,,---,0.00,770.00,VWS V14.01,2013-07-09 20:54:00,
2013-07-09 16:59:00,87.6,72.5,29.98,WSW,239,0.0,1.0,61,0.00,,---,0.00,749.00,VWS V14.01,2013-07-09 20:59:00,
2013-07-09 17:04:00,87.7,72.1,29.98,SSE,160,0.0,3.0,60,0.00,,---,0.00,733.00,VWS V14.01,2013-07-09 21:04:00,
2013-07-09 17:09:00,87.8,73.6,29.98,WNW,284,1.0,3.0,63,0.00,,---,0.00,726.00,VWS V14.01,2013-07-09 21:09:00,
2013-07-09 17:15:00,87.7,71.6,29.98,WNW,283,0.0,3.0,59,0.00,,---,0.00,139.00,VWS V14.01,2013-07-09 21:15:00,
2013-07-09 17:20:00,87.8,74.1,29.98,WNW,283,1.0,1.0,64,0.00,,---,0.00,693.00,VWS V14.01,2013-07-09 21:20:00,
2013-07-09 17:25:00,87.7,74.0,29.98,West,279,0.0,2.0,64,0.00,,---,0.00,712.00,VWS V14.01,2013-07-09 21:25:00,
2013-07-09 17:30:00,87.9,72.8,29.98,West,279,0.0,2.0,61,0.00,,---,0.00,684.00,VWS V14.01,2013-07-09 21:30:00,
2013-07-09 17:35:00,87.8,72.7,29.98,WSW,256,2.0,4.0,61,0.00,,---,0.00,640.00,VWS V14.01,2013-07-09 21:35:00,
2013-07-09 17:40:00,87.5,71.9,29.97,SW,236,0.0,4.0,60,0.00,,---,0.00,613.00,VWS V14.01,2013-07-09 21:40:00,
2013-07-09 17:45:00,87.7,73.6,29.97,SW,236,0.0,4.0,63,0.00,,---,0.00,594.00,VWS V14.01,2013-07-09 21:45:00,
2013-07-09 17:51:00,87.9,72.3,29.97,SW,236,0.0,2.0,60,0.00,,---,0.00,580.00,VWS V14.01,2013-07-09 21:51:00,
2013-07-09 17:56:00,87.9,71.8,29.98,WNW,302,1.0,4.0,59,0.00,,---,0.00,557.00,VWS V14.01,2013-07-09 21:56:00,
2013-07-09 18:01:00,87.7,72.6,29.97,West,271,0.0,2.0,61,0.00,,---,0.00,541.00,VWS V14.01,2013-07-09 22:01:00,
2013-07-09 18:06:00,87.5,72.9,29.97,West,277,0.0,2.0,62,0.00,,---,0.00,526.00,VWS V14.01,2013-07-09 22:06:00,
2013-07-09 18:11:00,87.5,73.4,29.98,West,277,1.0,2.0,63,0.00,,---,0.00,508.00,VWS V14.01,2013-07-09 22:11:00,
2013-07-09 18:16:00,87.3,71.7,29.97,WSW,240,1.0,5.0,60,0.00,,---,0.00,496.00,VWS V14.01,2013-07-09 22:16:00,
2013-07-09 18:21:00,86.8,70.8,29.97,WSW,240,0.0,1.0,59,0.00,,---,0.00,469.00,VWS V14.01,2013-07-09 22:21:00,
2013-07-09 18:26:00,87.0,71.9,29.97,SW,232,1.0,4.0,61,0.00,,---,0.00,452.00,VWS V14.01,2013-07-09 22:26:00,
2013-07-09 18:31:00,86.9,73.3,29.97,WSW,249,0.0,1.0,64,0.00,,---,0.00,434.00,VWS V14.01,2013-07-09 22:31:00,
2013-07-09 18:37:00,87.1,73.0,29.97,WSW,249,0.0,1.0,63,0.00,,---,0.00,420.00,VWS V14.01,2013-07-09 22:37:00,
2013-07-09 18:42:00,87.5,72.9,29.97,WSW,249,0.0,0.0,62,0.00,,---,0.00,401.00,VWS V14.01,2013-07-09 22:42:00,
2013-07-09 18:47:00,87.5,74.8,29.98,WSW,239,0.0,3.0,66,0.00,,---,0.00,385.00,VWS V14.01,2013-07-09 22:47:00,
2013-07-09 18:52:00,86.9,73.3,29.98,WSW,239,1.0,4.0,64,0.00,,---,0.00,366.00,VWS V14.01,2013-07-09 22:52:00,
2013-07-09 18:57:00,86.3,71.8,29.98,SW,226,0.0,4.0,62,0.00,,---,0.00,345.00,VWS V14.01,2013-07-09 22:57:00,
2013-07-09 19:02:00,86.3,73.2,29.97,SW,226,0.0,2.0,65,0.00,,---,0.00,327.00,VWS V14.01,2013-07-09 23:02:00,
2013-07-09 19:07:00,86.4,72.8,29.97,SW,226,0.0,2.0,64,0.00,,---,0.00,306.00,VWS V14.01,2013-07-09 23:07:00,
2013-07-09 19:13:00,86.5,71.9,29.97,SW,229,0.0,4.0,62,0.00,,---,0.00,290.00,VWS V14.01,2013-07-09 23:13:00,
2013-07-09 19:18:00,86.1,72.0,29.97,SW,229,0.0,4.0,63,0.00,,---,0.00,269.00,VWS V14.01,2013-07-09 23:18:00,
2013-07-09 19:23:00,85.7,70.7,29.97,SW,229,0.0,2.0,61,0.00,,---,0.00,214.00,VWS V14.01,2013-07-09 23:23:00,
2013-07-09 19:28:00,85.0,71.5,29.97,SW,229,1.0,2.0,64,0.00,,---,0.00,174.00,VWS V14.01,2013-07-09 23:28:00,
2013-07-09 19:33:00,84.4,72.2,29.97,SW,229,1.0,1.0,67,0.00,,---,0.00,195.00,VWS V14.01,2013-07-09 23:33:00,
2013-07-09 19:38:00,84.3,71.7,29.97,SW,229,0.0,1.0,66,0.00,,---,0.00,163.00,VWS V14.01,2013-07-09 23:38:00,
2013-07-09 19:43:00,84.3,73.5,29.97,SW,229,0.0,0.0,70,0.00,,---,0.00,42.00,VWS V14.01,2013-07-09 23:43:00,
2013-07-09 19:48:00,83.7,72.0,29.97,SW,229,0.0,1.0,68,0.00,,---,0.00,39.00,VWS V14.01,2013-07-09 23:48:00,
2013-07-09 19:53:00,82.5,71.7,29.98,SW,229,0.0,0.0,70,0.00,,---,0.00,35.00,VWS V14.01,2013-07-09 23:53:00,
2013-07-09 19:58:00,81.7,72.2,29.98,SW,229,0.0,0.0,73,0.00,,---,0.00,33.00,VWS V14.01,2013-07-09 23:58:00,
2013-07-09 20:03:00,81.0,71.9,29.98,SW,229,0.0,0.0,74,0.00,,---,0.00,23.00,VWS V14.01,2013-07-10 00:03:00,
2013-07-09 20:08:00,80.1,71.5,29.98,SW,229,0.0,0.0,75,0.00,,---,0.00,19.00,VWS V14.01,2013-07-10 00:08:00,
2013-07-09 20:14:00,79.2,70.6,29.97,SW,229,0.0,0.0,75,0.00,,---,0.00,16.00,VWS V14.01,2013-07-10 00:14:00,
2013-07-09 20:19:00,78.4,70.6,29.98,SW,229,0.0,0.0,77,0.00,,---,0.00,14.00,VWS V14.01,2013-07-10 00:19:00,
2013-07-09 20:24:00,77.9,70.5,29.98,SW,229,0.0,0.0,78,0.00,,---,0.00,16.00,VWS V14.01,2013-07-10 00:24:00,
2013-07-09 20:29:00,77.5,70.1,29.98,SW,228,0.0,0.0,78,0.00,,---,0.00,14.00,VWS V14.01,2013-07-10 00:29:00,
2013-07-09 20:34:00,77.3,70.3,29.97,SW,228,0.0,0.0,79,0.00,,---,0.00,12.00,VWS V14.01,2013-07-10 00:34:00,
2013-07-09 20:39:00,76.9,69.9,29.98,SW,228,0.0,0.0,79,0.00,,---,0.00,9.00,VWS V14.01,2013-07-10 00:39:00,
2013-07-09 20:44:00,76.5,69.9,29.99,SW,228,0.0,0.0,80,0.00,,---,0.00,5.00,VWS V14.01,2013-07-10 00:44:00,
2013-07-09 20:49:00,76.2,69.9,29.98,SW,228,0.0,0.0,81,0.00,,---,0.00,0.00,VWS V14.01,2013-07-10 00:49:00,
2013-07-09 20:55:00,75.9,69.7,29.99,SW,228,0.0,0.0,81,0.00,,---,0.00,0.00,VWS V14.01,2013-07-10 00:55:00,
2013-07-09 21:00:00,75.7,69.8,29.99,SW,228,0.0,0.0,82,0.00,,---,0.00,0.00,VWS V14.01,2013-07-10 01:00:00,
2013-07-09 21:05:00,75.5,68.9,29.99,SW,228,0.0,0.0,80,0.00,,---,0.00,0.00,VWS V14.01,2013-07-10 01:05:00,
2013-07-09 21:10:00,75.5,70.0,29.99,SW,228,0.0,0.0,83,0.00,,---,0.00,0.00,VWS V14.01,2013-07-10 01:10:00,
2013-07-09 21:15:00,75.4,69.9,29.99,SW,228,0.0,0.0,83,0.00,,---,0.00,0.00,VWS V14.01,2013-07-10 01:15:00,
2013-07-09 21:20:00,75.3,69.8,29.99,SW,228,0.0,0.0,83,0.00,,---,0.00,0.00,VWS V14.01,2013-07-10 01:20:00,
2013-07-09 21:25:00,75.2,69.7,29.99,SW,228,0.0,0.0,83,0.00,,---,0.00,0.00,VWS V14.01,2013-07-10 01:25:00,
2013-07-09 21:30:00,75.1,69.9,29.99,SW,228,0.0,0.0,84,0.00,,---,0.00,0.00,VWS V14.01,2013-07-10 01:30:00,
2013-07-09 21:35:00,75.1,70.3,30.00,SW,228,0.0,0.0,85,0.00,,---,0.00,0.00,VWS V14.01,2013-07-10 01:35:00,
2013-07-09 21:40:00,75.0,69.5,30.00,SW,227,0.0,0.0,83,0.00,,---,0.00,0.00,VWS V14.01,2013-07-10 01:40:00,
2013-07-09 21:46:00,75.1,69.9,29.99,SW,227,0.0,0.0,84,0.00,,---,0.00,0.00,VWS V14.01,2013-07-10 01:46:00,
2013-07-09 21:51:00,75.1,70.3,30.00,SW,227,0.0,0.0,85,0.00,,---,0.00,0.00,VWS V14.01,2013-07-10 01:51:00,
2013-07-09 21:56:00,74.9,69.7,30.00,SW,227,0.0,0.0,84,0.00,,---,0.00,0.00,VWS V14.01,2013-07-10 01:56:00,
2013-07-09 22:01:00,74.9,69.7,30.00,SW,227,0.0,0.0,84,0.00,,---,0.00,0.00,VWS V14.01,2013-07-10 02:01:00,
2013-07-09 22:06:00,74.8,70.0,30.00,SW,227,0.0,0.0,85,0.00,,---,0.00,0.00,VWS V14.01,2013-07-10 02:06:00,
2013-07-09 22:11:00,74.6,69.8,30.00,SW,227,0.0,0.0,85,0.00,,---,0.00,0.00,VWS V14.01,2013-07-10 02:11:00,
2013-07-09 22:16:00,74.4,69.6,30.00,SW,227,0.0,0.0,85,0.00,,---,0.00,0.00,VWS V14.01,2013-07-10 02:16:00,
2013-07-09 22:21:00,74.3,69.5,30.00,SW,227,0.0,0.0,85,0.00,,---,0.00,0.00,VWS V14.01,2013-07-10 02:21:00,
2013-07-09 22:27:00,74.2,69.4,30.00,SW,227,0.0,0.0,85,0.00,,---,0.00,0.00,VWS V14.01,2013-07-10 02:27:00,
2013-07-09 22:32:00,74.1,69.7,30.00,SW,227,0.0,0.0,86,0.00,,---,0.00,0.00,VWS V14.01,2013-07-10 02:32:00,
2013-07-09 22:37:00,74.0,69.2,30.00,SW,227,0.0,0.0,85,0.00,,---,0.00,0.00,VWS V14.01,2013-07-10 02:37:00,
2013-07-09 22:42:00,73.9,69.4,30.00,SW,227,0.0,0.0,86,0.00,,---,0.00,0.00,VWS V14.01,2013-07-10 02:42:00,
2013-07-09 22:47:00,73.9,69.8,30.00,SW,227,0.0,0.0,87,0.00,,---,0.00,0.00,VWS V14.01,2013-07-10 02:47:00,
2013-07-09 22:52:00,73.8,69.3,30.00,SW,227,0.0,0.0,86,0.00,,---,0.00,0.00,VWS V14.01,2013-07-10 02:52:00,
2013-07-09 22:57:00,73.7,69.6,30.00,SW,227,0.0,0.0,87,0.00,,---,0.00,0.00,VWS V14.01,2013-07-10 02:57:00,
2013-07-09 23:02:00,73.7,69.6,30.00,SW,227,0.0,0.0,87,0.00,,---,0.00,0.00,VWS V14.01,2013-07-10 03:02:00,
2013-07-09 23:07:00,73.7,69.9,29.99,SW,227,0.0,0.0,88,0.00,,---,0.00,0.00,VWS V14.01,2013-07-10 03:07:00,
2013-07-09 23:12:00,73.7,69.9,30.00,SW,227,0.0,0.0,88,0.00,,---,0.00,0.00,VWS V14.01,2013-07-10 03:12:00,
2013-07-09 23:18:00,73.6,69.5,29.99,SW,227,0.0,0.0,87,0.00,,---,0.00,0.00,VWS V14.01,2013-07-10 03:18:00,
2013-07-09 23:23:00,73.7,69.9,29.99,SW,227,0.0,0.0,88,0.00,,---,0.00,0.00,VWS V14.01,2013-07-10 03:23:00,
2013-07-09 23:28:00,73.7,69.9,29.99,SW,227,0.0,0.0,88,0.00,,---,0.00,0.00,VWS V14.01,2013-07-10 03:28:00,
2013-07-09 23:33:00,73.7,69.9,29.99,SW,227,0.0,0.0,88,0.00,,---,0.00,0.00,VWS V14.01,2013-07-10 03:33:00,
2013-07-09 23:38:00,73.7,69.6,29.99,SW,227,0.0,0.0,87,0.00,,---,0.00,0.00,VWS V14.01,2013-07-10 03:38:00,
2013-07-09 23:43:00,73.7,69.9,29.99,SW,227,0.0,0.0,88,0.00,,---,0.00,0.00,VWS V14.01,2013-07-10 03:43:00,
2013-07-09 23:48:00,73.7,69.9,29.99,SW,227,0.0,0.0,88,0.00,,---,0.00,0.00,VWS V14.01,2013-07-10 03:48:00,
2013-07-09 23:54:00,73.6,69.8,29.99,SW,227,0.0,0.0,88,0.00,,---,0.00,0.00,VWS V14.01,2013-07-10 03:54:00,
2013-07-09 23:59:00,73.5,69.7,29.99,SW,227,0.0,0.0,88,0.00,,---,0.00,0.00,VWS V14.01,2013-07-10 03:59:00,